LFRC/CER METAR and TAF weather

Enter ICAO airport designator
Station Type Date Time Source
LFRC METAR 2021/03/02 03:00 UTC NOAA

LFRC 020300Z AUTO 09009KT 3900 BR NSC 06/05 Q1026


Station Type Date Time Source
LFRC Decoded METAR 2021/03/02 03:00 UTC NOAA

Cherbourg / Maupertus, France (LFRC) 49-39N 001-28W 139M
Mar 01, 2021 - 10:00 PM EST / 2021.03.02 0300 UTC
Wind: from the E (090 degrees) at 10 MPH (9 KT):0
Visibility: 2 mile(s):0
Weather: mist
Temperature: 42 F (6 C)
Dew Point: 41 F (5 C)
Relative Humidity: 93%
Pressure (altimeter): 30.30 in. Hg (1026 hPa)
ob: LFRC 020300Z AUTO 09009KT 3900 BR NSC 06/05 Q1026
cycle: 3

Station Type Date Time Source
LFRC TAF 2008/10/12 17:07 UTC NOAA

TAF
AMD LFRC 121707Z 121721 CNL

Example: see airport list